Аэропорт: Жуляны. Киев

ICAO: UKKK

METAR:
2021-01-20 03:00:00
UKKK 200300Z VRB01MPS 5000 BR NSC M21/M24 Q1020 R26/820345 TEMPO 1000 BR
METAR:
2021-01-19 23:07:00
TAF UKKK 192307Z 2000/2024 16003MPS 2000 BR BKN007 TEMPO 2000/2007 0400 FZFG VV002 BECMG 2007/2009 6000 NSW BKN020 BECMG 2016/2018 17005G11MPS 3000 BR OVC007 TEMPO 2018/2024 1000 -SHSN BR BKN004 SCT012CB